Time;durP1;ratioP1;P1;durP2;ratioP2;P2;SDS_P1;SDS_P2;PMS_P1;PMS_P2;Temp;Humidity;BMP_temperature;BMP_pressure;BME280_temperature;BME280_humidity;BME280_pressure;Samples;Min_cycle;Max_cycle;Signal;HPM_P1;HPM_P2
2021/08/26 00:00:58;;;;;;;7.80;4.82;;;;;;;17.61;79.07;102001.78;5005186;28;20025;-86
2021/08/26 00:06:14;;;;;;;8.02;4.45;;;;;;;17.56;79.07;102010.50;5016265;28;20040;-87
2021/08/26 00:08:40;;;;;;;9.07;4.38;;;;;;;17.45;79.43;102005.56;4991170;28;20021;-86
2021/08/26 00:11:06;;;;;;;6.93;4.65;;;;;;;17.45;79.46;102012.88;5018276;28;20535;-87
2021/08/26 00:13:31;;;;;;;6.80;4.88;;;;;;;17.38;80.04;102009.25;4991965;28;20021;-86
2021/08/26 00:15:59;;;;;;;7.25;4.75;;;;;;;17.37;80.29;102005.69;5016903;28;20033;-87
2021/08/26 00:18:24;;;;;;;6.30;4.38;;;;;;;17.39;80.41;102003.63;5011509;28;20029;-86
2021/08/26 00:20:53;;;;;;;7.20;4.82;;;;;;;17.41;80.57;102001.56;5000657;28;20103;-86
2021/08/26 00:23:22;;;;;;;6.43;4.55;;;;;;;17.41;80.64;102007.00;4984869;28;20084;-87
2021/08/26 00:25:49;;;;;;;6.45;4.80;;;;;;;17.31;80.89;102003.72;4986801;28;20119;-86
2021/08/26 00:28:15;;;;;;;8.60;3.90;;;;;;;17.35;80.12;102011.28;4988074;28;20447;-86
2021/08/26 00:30:41;;;;;;;6.63;4.03;;;;;;;17.31;79.82;102003.72;4995700;28;20036;-87
2021/08/26 00:33:13;;;;;;;6.85;4.18;;;;;;;17.25;79.49;101994.47;4998044;28;20480;-87
2021/08/26 00:35:39;;;;;;;5.95;4.47;;;;;;;17.19;79.40;101987.03;5006915;28;20031;-87
2021/08/26 00:38:04;;;;;;;5.95;4.10;;;;;;;17.21;79.56;101992.31;4994418;28;20053;-86
2021/08/26 00:40:30;;;;;;;6.72;4.50;;;;;;;17.20;79.34;101990.59;5002704;28;21710;-87
2021/08/26 00:42:58;;;;;;;7.32;4.20;;;;;;;17.20;79.62;101994.19;5009903;28;20036;-86
2021/08/26 00:45:24;;;;;;;6.50;4.15;;;;;;;17.20;80.02;101994.19;4989224;28;20041;-86
2021/08/26 00:47:49;;;;;;;7.28;4.38;;;;;;;17.17;80.08;101982.84;4992122;28;20030;-86
2021/08/26 00:50:16;;;;;;;12.85;4.97;;;;;;;17.11;80.13;101979.00;4993163;28;20022;-86
2021/08/26 00:52:42;;;;;;;9.27;4.45;;;;;;;17.15;79.96;101985.75;5001143;28;20512;-86
2021/08/26 00:55:09;;;;;;;9.45;4.85;;;;;;;17.11;80.46;101985.28;5003800;28;20037;-86
2021/08/26 00:57:36;;;;;;;9.18;4.85;;;;;;;16.86;80.52;101965.72;5018476;28;21729;-86
2021/08/26 01:00:11;;;;;;;6.75;4.50;;;;;;;16.87;80.84;101985.59;4988405;28;20025;-87
2021/08/26 01:02:39;;;;;;;10.75;4.50;;;;;;;16.75;80.69;101987.91;5018593;28;20029;-86
2021/08/26 01:05:14;;;;;;;6.75;4.38;;;;;;;16.56;80.88;101980.28;5000004;28;20030;-87
2021/08/26 01:07:44;;;;;;;6.20;4.18;;;;;;;16.47;81.31;101979.53;5002675;28;20498;-87
2021/08/26 01:10:15;;;;;;;9.77;4.90;;;;;;;16.45;81.52;101965.28;5020223;28;21772;-86
2021/08/26 01:12:41;;;;;;;7.72;4.47;;;;;;;16.51;81.75;101982.72;4993401;28;20136;-87
2021/08/26 01:15:07;;;;;;;7.93;4.28;;;;;;;16.53;81.30;101986.09;5020038;28;20586;-87
2021/08/26 01:17:33;;;;;;;5.95;4.25;;;;;;;16.53;81.29;101989.63;5018896;28;20492;-86
2021/08/26 01:20:03;;;;;;;5.78;3.88;;;;;;;16.54;81.30;101988.63;4999904;28;20032;-87
2021/08/26 01:22:35;;;;;;;10.10;4.20;;;;;;;16.54;80.84;101990.47;5007321;28;20033;-86
2021/08/26 01:25:07;;;;;;;7.38;4.40;;;;;;;16.49;81.33;101982.91;5014865;28;20021;-87
2021/08/26 01:27:41;;;;;;;5.50;3.95;;;;;;;16.49;81.51;101978.31;5004597;28;20029;-87
2021/08/26 01:30:09;;;;;;;6.50;4.25;;;;;;;16.47;81.15;101963.25;5018248;28;20046;-86
2021/08/26 01:32:35;;;;;;;7.82;4.60;;;;;;;16.47;81.43;101969.50;4999941;28;20068;-87
2021/08/26 01:35:03;;;;;;;7.00;4.80;;;;;;;16.42;81.82;101971.09;4991824;28;20053;-87
2021/08/26 01:37:29;;;;;;;6.55;4.68;;;;;;;16.33;82.11;101958.66;5016658;28;20029;-86
2021/08/26 01:39:54;;;;;;;5.03;4.07;;;;;;;16.17;82.27;101949.63;5003856;28;20029;-87
2021/08/26 01:42:26;;;;;;;5.80;3.95;;;;;;;16.10;82.15;101958.69;5018409;28;20017;-87
2021/08/26 01:44:56;;;;;;;7.13;4.28;;;;;;;16.03;82.71;101966.69;5020597;28;20033;-86
2021/08/26 01:47:23;;;;;;;6.15;3.88;;;;;;;16.06;82.44;101971.75;5002619;28;20034;-87
2021/08/26 01:49:50;;;;;;;9.98;4.88;;;;;;;15.92;82.48;101940.84;5020494;28;20034;-86
2021/08/26 01:52:21;;;;;;;8.65;4.85;;;;;;;16.05;82.61;101961.94;4991168;28;20039;-86
2021/08/26 01:54:51;;;;;;;7.20;4.65;;;;;;;16.08;82.84;101963.44;5007198;28;20021;-86
2021/08/26 01:57:18;;;;;;;7.20;4.72;;;;;;;16.05;83.57;101961.94;5008726;28;20030;-86
2021/08/26 01:59:44;;;;;;;6.38;4.55;;;;;;;15.86;83.61;101932.59;5004010;28;20029;-86
2021/08/26 02:02:10;;;;;;;7.55;4.47;;;;;;;15.98;83.44;101953.69;4992990;28;20029;-86
2021/08/26 02:04:35;;;;;;;8.02;5.00;;;;;;;15.99;82.89;101947.22;5005087;28;20028;-86
2021/08/26 02:07:01;;;;;;;8.88;4.47;;;;;;;16.07;82.80;101949.03;4998456;28;20044;-87
2021/08/26 02:09:27;;;;;;;6.43;4.32;;;;;;;16.14;82.71;101955.41;5002623;28;20037;-86
2021/08/26 02:11:52;;;;;;;10.07;4.85;;;;;;;16.12;82.60;101941.19;5019886;28;20117;-86
2021/08/26 02:14:18;;;;;;;8.52;4.78;;;;;;;16.07;82.08;101923.78;5016619;28;20484;-86
2021/08/26 02:16:43;;;;;;;6.97;4.95;;;;;;;16.18;81.97;101947.75;5018347;28;20021;-86
2021/08/26 02:19:09;;;;;;;8.75;4.70;;;;;;;16.11;82.05;101941.34;5005656;28;20429;-85
2021/08/26 02:21:35;;;;;;;8.85;4.80;;;;;;;16.09;82.01;101941.56;5005665;28;20037;-86
2021/08/26 02:24:01;;;;;;;6.53;4.68;;;;;;;16.00;81.70;101939.94;5012107;28;20125;-86
2021/08/26 02:26:26;;;;;;;9.07;5.00;;;;;;;16.07;81.57;101954.47;4988905;28;20094;-86
2021/08/26 02:28:52;;;;;;;5.40;3.90;;;;;;;16.11;81.91;101961.19;5003012;28;20092;-85
2021/08/26 02:31:17;;;;;;;5.60;4.30;;;;;;;16.05;81.49;101954.63;4990841;28;20021;-86
2021/08/26 02:33:43;;;;;;;6.07;4.20;;;;;;;15.96;81.54;101947.59;4991355;28;20022;-86
2021/08/26 02:36:09;;;;;;;5.13;3.38;;;;;;;16.00;81.41;101953.50;4992242;28;20037;-86
2021/08/26 02:38:34;;;;;;;5.18;3.53;;;;;;;15.98;81.42;101961.84;5013784;28;20034;-86
2021/08/26 02:41:00;;;;;;;7.50;3.90;;;;;;;15.94;81.38;101956.94;5005216;28;20726;-87
2021/08/26 02:43:25;;;;;;;6.60;3.90;;;;;;;15.90;80.97;101951.03;4994446;28;20026;-87
2021/08/26 02:45:51;;;;;;;7.40;4.05;;;;;;;15.88;81.35;101960.38;4993164;28;20388;-86
2021/08/26 02:48:17;;;;;;;6.40;4.10;;;;;;;15.83;81.70;101956.34;5003746;28;20108;-86
2021/08/26 02:50:42;;;;;;;7.57;4.40;;;;;;;15.77;81.87;101953.50;5018229;28;20038;-86
2021/08/26 02:53:08;;;;;;;7.03;4.30;;;;;;;15.81;82.19;101957.56;5018373;28;20080;-87
2021/08/26 02:55:34;;;;;;;6.75;4.18;;;;;;;15.70;82.19;101947.97;4996640;28;20534;-85
2021/08/26 02:57:59;;;;;;;7.15;4.80;;;;;;;15.59;82.48;101932.09;5008196;28;20029;-86
2021/08/26 03:00:25;;;;;;;6.68;4.70;;;;;;;15.70;82.13;101945.25;5007180;28;20041;-85
2021/08/26 03:02:51;;;;;;;11.93;4.50;;;;;;;15.74;82.04;101957.41;5016062;28;20073;-85
2021/08/26 03:05:16;;;;;;;6.80;4.60;;;;;;;15.56;81.97;101918.91;4990701;28;20026;-86
2021/08/26 03:07:43;;;;;;;6.20;4.22;;;;;;;15.68;82.10;101949.97;5005822;28;20061;-86
2021/08/26 03:10:09;;;;;;;6.50;4.60;;;;;;;15.65;82.42;101950.34;4999597;28;20057;-85
2021/08/26 03:12:35;;;;;;;6.63;4.28;;;;;;;15.64;82.79;101951.38;5021647;28;20044;-86
2021/08/26 03:15:00;;;;;;;6.93;4.75;;;;;;;15.63;82.74;101946.13;5027241;28;20040;-86
2021/08/26 03:17:26;;;;;;;5.55;4.03;;;;;;;15.58;82.59;101941.22;4994665;28;20454;-86
2021/08/26 03:19:52;;;;;;;6.50;4.38;;;;;;;15.56;82.14;101946.84;4994418;28;20028;-85
2021/08/26 03:22:17;;;;;;;5.55;3.90;;;;;;;15.46;82.21;101935.41;5018909;28;20840;-86
2021/08/26 03:24:43;;;;;;;7.07;3.75;;;;;;;15.38;82.07;101928.16;5000486;28;20021;-86
2021/08/26 03:27:09;;;;;;;4.13;3.33;;;;;;;15.14;81.96;101899.34;5002078;28;20075;-86
2021/08/26 03:29:34;;;;;;;4.63;3.47;;;;;;;15.33;82.08;101938.69;5008474;28;20029;-85
2021/08/26 03:32:00;;;;;;;5.60;3.50;;;;;;;15.26;82.39;101931.44;5004640;28;20029;-85
2021/08/26 03:34:25;;;;;;;4.93;3.45;;;;;;;15.04;82.45;101914.13;5014463;28;20112;-86
2021/08/26 03:36:51;;;;;;;6.70;3.80;;;;;;;14.98;82.98;101915.69;5023768;28;20104;-86
2021/08/26 03:39:17;;;;;;;5.35;3.35;;;;;;;14.86;82.99;101911.66;5016065;28;20029;-86
2021/08/26 03:41:42;;;;;;;6.80;3.40;;;;;;;14.80;83.17;101913.22;4994601;28;20024;-86
2021/08/26 03:44:08;;;;;;;7.32;3.55;;;;;;;14.72;83.52;101910.56;5009352;28;20030;-86
2021/08/26 03:46:33;;;;;;;4.15;2.97;;;;;;;14.81;83.96;101930.31;5005712;28;20037;-86
2021/08/26 03:48:59;;;;;;;4.78;2.95;;;;;;;14.69;84.22;101914.44;4991366;28;20384;-86
2021/08/26 03:51:25;;;;;;;5.43;3.88;;;;;;;14.67;84.75;101913.78;4998101;28;20030;-86
2021/08/26 03:53:50;;;;;;;6.95;4.68;;;;;;;14.83;84.66;101929.09;4992434;28;20087;-86
2021/08/26 03:56:16;;;;;;;6.90;4.80;;;;;;;14.81;85.01;101919.47;5010683;28;20029;-86
2021/08/26 03:58:41;;;;;;;7.60;3.90;;;;;;;14.83;84.58;101914.72;4993984;28;20041;-86
2021/08/26 04:01:07;;;;;;;7.40;4.75;;;;;;;14.76;84.54;101902.91;4996517;28;20033;-86
2021/08/26 04:03:33;;;;;;;7.22;4.85;;;;;;;14.97;85.06;101929.41;5014963;28;20026;-86
2021/08/26 04:05:59;;;;;;;6.82;5.20;;;;;;;14.82;85.11;101900.34;5025450;28;20438;-86
2021/08/26 04:08:24;;;;;;;6.85;4.95;;;;;;;15.04;84.97;101938.50;5010684;28;20139;-86
2021/08/26 04:10:50;;;;;;;9.27;4.72;;;;;;;14.90;84.92;101919.28;5012409;28;20018;-86
2021/08/26 04:13:16;;;;;;;9.45;4.75;;;;;;;15.04;84.38;101933.94;5003508;28;20037;-86
2021/08/26 04:15:41;;;;;;;8.57;4.80;;;;;;;15.10;84.13;101938.63;4997144;28;20037;-86
2021/08/26 04:18:07;;;;;;;6.72;4.90;;;;;;;14.99;84.32;101921.94;5027472;28;20037;-86
2021/08/26 04:20:32;;;;;;;9.35;6.43;;;;;;;14.95;84.32;101918.72;5012647;28;20025;-86
2021/08/26 04:22:58;;;;;;;8.00;4.75;;;;;;;14.89;84.09;101903.19;4996505;28;20171;-86
2021/08/26 04:25:24;;;;;;;6.63;4.95;;;;;;;14.92;84.64;101909.13;4998600;28;20065;-87
2021/08/26 04:27:49;;;;;;;7.10;5.05;;;;;;;14.98;85.12;101914.81;5031280;28;20433;-86
2021/08/26 04:30:15;;;;;;;7.05;4.53;;;;;;;15.02;85.15;101925.13;5000638;28;20044;-86
2021/08/26 04:32:41;;;;;;;6.35;4.30;;;;;;;14.97;84.93;101930.22;5028734;28;20037;-86
2021/08/26 04:35:07;;;;;;;5.82;4.07;;;;;;;14.69;84.82;101902.78;5009416;28;20040;-86
2021/08/26 04:37:32;;;;;;;7.57;4.07;;;;;;;14.92;84.53;101938.91;5013958;28;20875;-86
2021/08/26 04:39:58;;;;;;;6.30;3.92;;;;;;;14.83;83.92;101923.69;4996495;28;20492;-86
2021/08/26 04:42:24;;;;;;;7.53;4.03;;;;;;;14.87;83.58;101941.28;4994625;28;20496;-86
2021/08/26 04:44:49;;;;;;;7.30;4.25;;;;;;;14.77;83.96;101927.13;5012125;28;20021;-86
2021/08/26 04:47:15;;;;;;;6.70;4.32;;;;;;;14.70;83.88;101912.56;4992900;28;20018;-86
2021/08/26 04:49:41;;;;;;;7.13;4.30;;;;;;;14.85;84.00;101943.31;5011176;28;20044;-86
2021/08/26 04:52:07;;;;;;;5.65;4.10;;;;;;;14.76;83.42;101929.97;5011845;28;20041;-86
2021/08/26 04:54:33;;;;;;;8.45;4.88;;;;;;;14.82;83.85;101942.81;4997581;28;20030;-86
2021/08/26 04:56:58;;;;;;;7.68;4.72;;;;;;;14.76;84.01;101944.34;5026258;28;20065;-86
2021/08/26 04:59:24;;;;;;;7.03;4.65;;;;;;;14.68;84.49;101933.56;5019713;28;20032;-86
2021/08/26 05:01:50;;;;;;;6.97;4.13;;;;;;;14.62;85.08;101936.97;5016555;28;20144;-86
2021/08/26 05:04:22;;;;;;;6.15;3.70;;;;;;;14.54;84.98;101943.25;4994261;28;20033;-85
2021/08/26 05:06:48;;;;;;;4.45;2.95;;;;;;;14.37;84.81;101933.44;5014629;28;20036;-86
2021/08/26 05:09:14;;;;;;;4.22;2.63;;;;;;;14.13;84.63;101908.13;5010391;28;20120;-86
2021/08/26 05:11:39;;;;;;;3.58;2.55;;;;;;;14.27;84.59;101930.94;4991227;28;20080;-86
2021/08/26 05:14:05;;;;;;;3.80;2.40;;;;;;;14.19;84.27;101930.94;4998956;28;20494;-86
2021/08/26 05:16:30;;;;;;;3.78;2.92;;;;;;;14.17;84.37;101924.84;4994353;28;20025;-86
2021/08/26 05:18:56;;;;;;;6.07;3.30;;;;;;;14.22;83.93;101938.72;5013122;28;20029;-86
2021/08/26 05:21:22;;;;;;;7.20;3.53;;;;;;;14.18;84.09;101926.53;5029851;28;20037;-85
2021/08/26 05:23:47;;;;;;;4.78;3.58;;;;;;;14.07;83.50;101912.34;4996448;28;20026;-86
2021/08/26 05:26:13;;;;;;;5.43;3.78;;;;;;;14.10;84.18;101927.38;5012581;28;20037;-86
2021/08/26 05:28:39;;;;;;;6.47;3.90;;;;;;;14.12;84.45;101938.88;5012831;28;20056;-85
2021/08/26 05:31:05;;;;;;;8.20;3.85;;;;;;;14.00;84.38;101921.34;5000941;28;20061;-85
2021/08/26 05:33:31;;;;;;;5.57;3.53;;;;;;;13.90;84.78;101917.97;5029051;28;20112;-86
2021/08/26 05:35:56;;;;;;;5.53;3.58;;;;;;;13.92;84.66;101911.38;5012333;28;20040;-86
2021/08/26 05:38:22;;;;;;;5.97;3.83;;;;;;;13.90;84.44;101916.09;5028406;28;20036;-86
2021/08/26 05:40:47;;;;;;;5.50;3.78;;;;;;;13.91;84.44;101928.59;5012711;28;20029;-85
2021/08/26 05:43:13;;;;;;;5.10;3.42;;;;;;;13.88;84.15;101918.09;5011677;28;20022;-86
2021/08/26 05:45:38;;;;;;;5.95;3.63;;;;;;;14.03;83.70;101948.88;5025806;28;20476;-85
2021/08/26 05:48:04;;;;;;;6.25;3.72;;;;;;;13.91;83.67;101925.88;5012379;28;20025;-85
2021/08/26 05:50:30;;;;;;;6.10;3.63;;;;;;;13.95;83.57;101927.25;5013450;28;20118;-86
2021/08/26 05:52:56;;;;;;;6.78;4.05;;;;;;;14.11;83.24;101949.91;5008724;28;20405;-86
2021/08/26 05:55:21;;;;;;;8.13;3.90;;;;;;;14.11;83.63;101955.31;5013276;28;20025;-85
2021/08/26 05:57:47;;;;;;;6.15;4.18;;;;;;;14.09;83.90;101947.34;4994901;28;20057;-85
2021/08/26 06:00:13;;;;;;;5.25;3.40;;;;;;;14.07;84.22;101954.78;5004885;28;20049;-86
2021/08/26 06:02:39;;;;;;;5.40;3.92;;;;;;;14.14;84.62;101963.91;5011090;28;20044;-86
2021/08/26 06:05:06;;;;;;;6.32;3.67;;;;;;;14.14;84.39;101965.78;5008673;28;20030;-85
2021/08/26 06:07:32;;;;;;;6.32;4.03;;;;;;;14.11;84.13;101949.91;5005882;28;20036;-86
2021/08/26 06:09:57;;;;;;;8.60;4.05;;;;;;;14.23;84.10;101959.31;5007852;28;20033;-85
2021/08/26 06:12:23;;;;;;;8.20;3.97;;;;;;;14.14;84.03;101946.84;4991503;28;20034;-85
2021/08/26 06:14:48;;;;;;;6.45;4.10;;;;;;;14.29;84.15;101964.91;4993656;28;20025;-86
2021/08/26 06:17:14;;;;;;;6.80;4.05;;;;;;;14.12;84.40;101940.75;5006524;28;20030;-84
2021/08/26 06:19:40;;;;;;;6.88;4.85;;;;;;;14.29;84.76;101962.22;5011435;28;20124;-85
2021/08/26 06:22:05;;;;;;;7.13;4.10;;;;;;;14.34;85.05;101971.66;5025616;28;20021;-86
2021/08/26 06:24:31;;;;;;;7.80;4.65;;;;;;;14.38;85.09;101967.63;4993633;28;20031;-85
2021/08/26 06:27:01;;;;;;;6.60;4.55;;;;;;;14.40;85.12;101969.13;5009148;28;20033;-86
2021/08/26 06:29:26;;;;;;;6.07;4.50;;;;;;;14.37;85.42;101969.47;5018245;28;20021;-85
2021/08/26 06:31:52;;;;;;;8.02;4.93;;;;;;;14.33;85.84;101968.13;5011814;28;20041;-85
2021/08/26 06:34:18;;;;;;;7.57;4.85;;;;;;;14.30;86.32;101953.06;5025611;28;20021;-85
2021/08/26 06:36:43;;;;;;;7.75;4.68;;;;;;;14.41;86.44;101959.97;5008507;28;20522;-85
2021/08/26 06:39:09;;;;;;;8.30;5.57;;;;;;;14.42;86.64;101948.16;5003630;28;20021;-86
2021/08/26 06:41:35;;;;;;;12.45;6.22;;;;;;;14.57;86.80;101952.88;5009100;28;20468;-85
2021/08/26 06:44:00;;;;;;;9.27;5.35;;;;;;;14.62;86.89;101956.75;5011431;28;20080;-87
2021/08/26 06:46:26;;;;;;;7.97;5.03;;;;;;;14.59;87.18;101945.44;5008021;28;20095;-86
2021/08/26 06:48:54;;;;;;;11.27;5.43;;;;;;;14.73;87.08;101952.84;4997005;28;20025;-86
2021/08/26 06:51:20;;;;;;;7.65;5.35;;;;;;;14.81;87.31;101951.97;5023340;28;20044;-86
2021/08/26 06:53:46;;;;;;;8.00;5.65;;;;;;;14.83;87.54;101958.06;5010678;28;20049;-86
2021/08/26 06:56:13;;;;;;;9.55;5.07;;;;;;;14.91;87.69;101968.84;5009240;28;20068;-86
2021/08/26 06:58:39;;;;;;;8.85;5.25;;;;;;;14.82;87.81;101954.50;4998766;28;20049;-86
2021/08/26 07:01:05;;;;;;;9.50;5.07;;;;;;;15.01;88.05;101964.09;5006575;28;20041;-85
2021/08/26 07:03:30;;;;;;;9.48;6.13;;;;;;;15.09;88.04;101965.91;5011700;28;20088;-85
2021/08/26 07:05:56;;;;;;;9.23;6.47;;;;;;;15.10;87.90;101937.78;5008290;28;20392;-85
2021/08/26 07:08:22;;;;;;;8.70;6.00;;;;;;;15.41;87.59;101956.78;4998902;28;20028;-85
2021/08/26 07:10:47;;;;;;;10.57;6.25;;;;;;;15.55;87.26;101960.56;5009824;28;20026;-85
2021/08/26 07:13:13;;;;;;;8.88;6.57;;;;;;;15.60;87.53;101964.44;5002697;28;20041;-85
2021/08/26 07:15:39;;;;;;;10.43;6.15;;;;;;;15.65;87.66;101963.91;5009110;28;20079;-86
2021/08/26 07:18:06;;;;;;;9.98;6.68;;;;;;;15.71;87.73;101959.66;5010916;28;20044;-85
2021/08/26 07:20:32;;;;;;;9.50;6.28;;;;;;;15.83;87.81;101969.06;4988914;28;20037;-85
2021/08/26 07:22:57;;;;;;;9.18;6.28;;;;;;;15.91;87.82;101957.31;5006923;28;20025;-85
2021/08/26 07:25:23;;;;;;;9.18;5.65;;;;;;;16.03;87.53;101977.53;5021745;28;20029;-86
2021/08/26 07:27:49;;;;;;;9.82;6.78;;;;;;;16.03;87.70;101969.41;5002029;28;20026;-85
2021/08/26 07:30:15;;;;;;;9.80;6.50;;;;;;;16.12;87.82;101978.34;4993692;28;20582;-85
2021/08/26 07:32:41;;;;;;;9.48;6.60;;;;;;;16.15;88.01;101986.94;4998672;28;20030;-85
2021/08/26 07:35:07;;;;;;;10.60;6.63;;;;;;;16.21;88.16;101986.19;4993246;28;20132;-85
2021/08/26 07:37:33;;;;;;;15.07;8.40;;;;;;;16.29;87.99;101976.31;5012756;28;20026;-85
2021/08/26 07:40:02;;;;;;;11.27;6.90;;;;;;;16.26;88.17;101950.38;5010509;28;20526;-86
2021/08/26 07:42:48;;;;;;;11.25;8.40;;;;;;;16.55;88.15;101979.44;4995559;28;20047;-85
2021/08/26 07:45:13;;;;;;;11.73;8.70;;;;;;;16.58;88.26;101972.78;5008511;28;20041;-85
2021/08/26 07:47:39;;;;;;;12.27;8.18;;;;;;;16.66;88.36;101983.56;4995688;28;20033;-86
2021/08/26 07:50:06;;;;;;;12.55;7.72;;;;;;;16.76;88.39;101988.75;5006179;28;20036;-85
2021/08/26 07:52:33;;;;;;;10.50;7.60;;;;;;;16.57;88.52;101952.13;5006741;28;20037;-85
2021/08/26 07:54:59;;;;;;;12.75;8.20;;;;;;;16.76;88.38;101973.28;4986067;28;20029;-85
2021/08/26 07:57:25;;;;;;;12.82;8.10;;;;;;;16.79;88.56;101970.22;5010866;28;20025;-86
2021/08/26 07:59:51;;;;;;;11.52;7.88;;;;;;;16.99;88.25;101992.25;4995547;28;20029;-86
2021/08/26 08:02:17;;;;;;;12.98;8.07;;;;;;;17.09;88.14;101990.06;5007086;28;20148;-86
2021/08/26 08:04:43;;;;;;;17.42;8.50;;;;;;;17.13;87.97;101971.50;5008667;28;20112;-86
2021/08/26 08:07:08;;;;;;;14.88;7.95;;;;;;;17.32;87.65;101997.25;4996841;28;20179;-86
2021/08/26 08:09:34;;;;;;;11.32;7.15;;;;;;;17.41;87.35;101989.81;4992493;28;20103;-86
2021/08/26 08:12:00;;;;;;;11.65;7.70;;;;;;;17.48;87.21;101994.31;5017582;28;20021;-86
2021/08/26 08:14:29;;;;;;;11.90;7.65;;;;;;;17.55;86.88;102008.00;4992681;28;20076;-86
2021/08/26 08:16:55;;;;;;;11.80;7.72;;;;;;;17.45;86.40;101970.22;5016480;28;20369;-86
2021/08/26 08:19:22;;;;;;;11.32;7.15;;;;;;;17.55;85.86;101970.75;4988719;28;20036;-86
2021/08/26 08:21:48;;;;;;;10.27;6.55;;;;;;;17.77;85.87;101989.81;5001889;28;20566;-86
2021/08/26 08:24:13;;;;;;;10.80;7.20;;;;;;;17.89;85.07;101977.41;5015047;28;20057;-85
2021/08/26 08:26:39;;;;;;;13.15;8.48;;;;;;;18.04;84.80;101981.94;5014421;28;20029;-87
2021/08/26 08:29:05;;;;;;;11.80;7.63;;;;;;;18.16;84.40;101974.94;4995200;28;20048;-86
2021/08/26 08:31:30;;;;;;;10.93;6.85;;;;;;;18.27;84.09;101979.84;5008276;28;20414;-86
2021/08/26 08:33:56;;;;;;;11.15;6.60;;;;;;;18.44;83.12;101981.25;5020243;28;20025;-87
2021/08/26 08:36:22;;;;;;;10.40;6.90;;;;;;;18.62;82.79;101979.88;5013551;28;20091;-87
2021/08/26 08:38:48;;;;;;;10.05;6.70;;;;;;;18.83;81.62;101987.16;5016125;28;20025;-86
2021/08/26 08:41:19;;;;;;;11.15;6.30;;;;;;;18.93;80.68;101984.94;5018521;28;20132;-86
2021/08/26 08:43:45;;;;;;;11.32;6.18;;;;;;;19.15;80.04;101977.47;5026895;28;20022;-87
2021/08/26 08:46:11;;;;;;;11.60;6.40;;;;;;;19.18;78.97;101957.97;5005896;28;20030;-86
2021/08/26 08:48:40;;;;;;;9.40;5.80;;;;;;;19.50;77.96;101975.53;5020748;28;20088;-87
2021/08/26 08:51:08;;;;;;;11.43;7.25;;;;;;;19.58;77.65;101973.63;5009884;28;20392;-87
2021/08/26 08:53:34;;;;;;;9.25;6.25;;;;;;;19.71;77.27;101982.75;5027177;28;20056;-87
2021/08/26 08:56:03;;;;;;;8.00;5.82;;;;;;;19.86;76.54;101977.09;5003179;28;20177;-87
2021/08/26 08:58:43;;;;;;;8.90;5.70;;;;;;;19.99;75.80;101981.72;5019358;28;20455;-86
2021/08/26 09:01:12;;;;;;;7.75;5.50;;;;;;;20.11;74.42;101977.34;5014424;28;20035;-87
2021/08/26 09:03:38;;;;;;;8.02;5.60;;;;;;;20.13;73.36;101958.00;5028070;28;20034;-86
2021/08/26 09:06:04;;;;;;;7.25;5.20;;;;;;;20.43;72.44;101986.56;5014345;28;20044;-86
2021/08/26 09:08:32;;;;;;;7.38;5.00;;;;;;;20.64;71.37;101982.78;5030167;28;20365;-87
2021/08/26 09:11:11;;;;;;;6.90;4.57;;;;;;;20.75;70.15;101972.25;5003364;28;20030;-85
2021/08/26 09:13:37;;;;;;;7.78;5.05;;;;;;;21.01;69.48;101993.19;5030576;28;20021;-87
2021/08/26 09:16:03;;;;;;;6.47;4.82;;;;;;;21.06;68.36;101980.59;5030732;28;20427;-87
2021/08/26 09:18:30;;;;;;;7.45;4.45;;;;;;;21.27;68.02;101995.81;5019560;28;20080;-88
2021/08/26 09:21:06;;;;;;;6.82;4.60;;;;;;;21.42;67.54;101998.31;5013981;28;20026;-87
2021/08/26 09:23:34;;;;;;;8.15;4.85;;;;;;;21.57;67.46;102002.69;5030431;28;20061;-88
2021/08/26 09:26:20;;;;;;;7.57;4.38;;;;;;;21.67;66.53;102003.91;5022284;28;20039;-87
2021/08/26 09:28:46;;;;;;;7.15;4.35;;;;;;;21.87;66.22;101998.28;5014122;28;20068;-87
2021/08/26 09:31:14;;;;;;;7.47;4.32;;;;;;;22.00;65.50;101999.25;4988056;28;20036;-86
2021/08/26 09:33:52;;;;;;;8.07;4.45;;;;;;;22.11;64.85;102002.09;5029231;28;20013;-87
2021/08/26 09:36:23;;;;;;;6.18;4.57;;;;;;;22.22;63.84;101995.09;5044884;28;20033;-86
2021/08/26 09:38:59;;;;;;;6.75;4.57;;;;;;;22.25;64.25;101989.16;5034936;28;20519;-87
2021/08/26 09:41:34;;;;;;;9.13;5.07;;;;;;;22.29;64.27;101995.06;5034047;28;20607;-86
2021/08/26 09:44:04;;;;;;;7.00;4.93;;;;;;;22.36;64.05;101985.72;5020839;28;20021;-87
2021/08/26 09:46:32;;;;;;;7.65;4.60;;;;;;;22.47;64.38;101994.28;4994188;28;20037;-87
2021/08/26 09:49:02;;;;;;;7.50;4.18;;;;;;;22.66;63.39;101995.13;5010532;28;20021;-84
2021/08/26 09:51:28;;;;;;;7.72;4.70;;;;;;;22.76;62.71;102001.78;4997310;28;20392;-86
2021/08/26 09:53:53;;;;;;;7.88;5.20;;;;;;;22.76;62.35;101977.09;5006305;28;20112;-85
2021/08/26 09:56:19;;;;;;;11.10;5.47;;;;;;;22.89;61.52;101997.19;5003652;28;20112;-86
2021/08/26 09:58:52;;;;;;;8.65;5.38;;;;;;;22.95;61.55;101996.31;4996684;28;20456;-85
2021/08/26 10:01:20;;;;;;;8.50;5.20;;;;;;;22.94;60.93;101990.00;5012714;28;20021;-85
2021/08/26 10:03:47;;;;;;;11.13;5.78;;;;;;;23.08;61.49;102003.59;5006186;28;20530;-86
2021/08/26 10:06:15;;;;;;;10.70;6.65;;;;;;;23.10;61.41;101994.06;5021282;28;20036;-87
2021/08/26 10:08:42;;;;;;;10.68;6.47;;;;;;;22.93;61.53;101957.28;5011418;28;20092;-87
2021/08/26 10:11:09;;;;;;;13.82;7.50;;;;;;;23.20;61.45;101996.22;4993958;28;20033;-86
2021/08/26 10:13:38;;;;;;;12.85;7.57;;;;;;;23.34;61.36;101992.28;5026148;28;20498;-85
2021/08/26 10:16:03;;;;;;;10.73;6.57;;;;;;;23.43;61.10;101992.78;5009323;28;20029;-85
2021/08/26 10:18:29;;;;;;;12.63;7.25;;;;;;;23.62;60.39;101993.56;5015679;28;20025;-86
2021/08/26 10:20:56;;;;;;;11.10;6.72;;;;;;;23.68;60.27;102004.47;4994837;28;20047;-86
2021/08/26 10:23:23;;;;;;;13.18;6.55;;;;;;;23.73;61.57;101991.97;5023848;28;20030;-86
2021/08/26 10:25:49;;;;;;;8.98;6.45;;;;;;;23.84;60.61;101989.28;4992616;28;20500;-87
2021/08/26 10:28:17;;;;;;;9.02;6.55;;;;;;;23.93;60.54;101995.25;5000682;28;20477;-84
2021/08/26 10:30:43;;;;;;;9.65;6.38;;;;;;;23.78;60.36;101961.91;5014146;28;20082;-85
2021/08/26 10:33:20;;;;;;;11.60;6.70;;;;;;;24.06;59.92;101983.22;5027237;28;20029;-86
2021/08/26 10:35:53;;;;;;;8.77;6.13;;;;;;;24.28;58.73;102000.81;4998968;28;20033;-86
2021/08/26 10:38:30;;;;;;;9.35;6.13;;;;;;;24.36;58.00;102000.47;5031843;28;20052;-86
2021/08/26 10:40:58;;;;;;;8.02;5.90;;;;;;;24.50;57.88;101998.34;5030522;28;20032;-87
2021/08/26 10:43:38;;;;;;;9.82;5.88;;;;;;;24.73;57.92;101999.41;5004727;28;20026;-84
2021/08/26 10:46:09;;;;;;;8.32;5.47;;;;;;;24.80;57.93;102005.63;5018846;28;20026;-86
2021/08/26 10:48:35;;;;;;;9.25;6.43;;;;;;;24.87;57.49;102005.50;5029709;28;20021;-84
2021/08/26 10:51:15;;;;;;;9.40;6.32;;;;;;;24.87;56.95;101989.81;5030556;28;20476;-84
2021/08/26 10:53:51;;;;;;;9.25;5.93;;;;;;;24.94;57.64;102001.53;5014886;28;20029;-87
2021/08/26 10:56:29;;;;;;;8.25;5.55;;;;;;;25.10;56.45;101996.38;5031361;28;20029;-87
2021/08/26 10:59:00;;;;;;;11.65;5.80;;;;;;;25.25;55.80;101995.91;5023021;28;20427;-83
2021/08/26 11:01:37;;;;;;;8.10;5.40;;;;;;;25.27;55.09;101994.56;5029339;28;20026;-84
2021/08/26 11:04:17;;;;;;;7.72;4.65;;;;;;;25.28;55.34;101989.91;5028242;28;20561;-84
2021/08/26 11:06:44;;;;;;;9.48;5.55;;;;;;;25.31;55.11;101987.47;5009949;28;20424;-85
2021/08/26 11:09:13;;;;;;;7.32;5.05;;;;;;;25.48;55.13;101992.19;4999983;28;20025;-83
2021/08/26 11:11:45;;;;;;;9.60;4.97;;;;;;;25.47;54.64;101988.63;5026704;28;20155;-85
2021/08/26 11:14:31;;;;;;;8.93;5.15;;;;;;;25.48;55.83;101990.28;5002887;28;20480;-84
2021/08/26 11:17:05;;;;;;;8.20;5.05;;;;;;;25.47;54.16;101988.63;5020650;28;20087;-84
2021/08/26 11:19:34;;;;;;;8.50;5.00;;;;;;;25.54;53.92;101978.31;5014851;28;20044;-84
2021/08/26 11:22:03;;;;;;;6.70;4.60;;;;;;;25.68;53.68;101973.31;5029469;28;20025;-84
2021/08/26 11:24:28;;;;;;;7.40;4.68;;;;;;;25.92;53.86;101985.06;5016430;28;20029;-84
2021/08/26 11:26:59;;;;;;;5.95;4.88;;;;;;;25.91;53.03;101986.16;5029166;28;20021;-84